• Join FlightAware (Why Join?)
  • Login
  • US Flag 
01:14PM EDT


 

Airport Tracker/Info


-or-


 

Live Flight TrackerFlight Track Log ✈ N41173 ✈ 17-Aug-2014 ✈ KFOK - KPYM

Flight Track Log - Related Links

Times and Time Zones

All times are in EDT time to prevent confusion due to time zone crossing. See the N41173 flight status page for this flight to view local times or setup timezone preferences in your user account.

Time Position Orientation Groundspeed Altitude Reporting Facility
EDT Latitude Longitude Course Direction KTS MPH feet Rate Location/Type
09:58AM 41.0500 -72.3667 56° Northeast 144 166 7,000  Level New York TRACON
09:59AM 41.0667 -72.3333 56° Northeast 146 168 7,300 180 Climbing New York TRACON
10:00AM 41.1000 -72.3000 37° Northeast 145 167 7,400 60 Climbing New York TRACON
10:01AM 41.1286 -72.2525 51° Northeast 148 170 7,500 60 Climbing Boston Center
10:01AM 41.1419 -72.2317 50° Northeast 159 183 7,500  Level Boston Center
10:02AM 41.1742 -72.1922 43° Northeast 168 193 7,500  Level Boston Center
10:03AM 41.2075 -72.1475 45° Northeast 173 199 7,500  Level Boston Center
10:04AM 41.2439 -72.0978 46° Northeast 176 203 7,500  Level Boston Center
10:05AM 41.2781 -72.0503 46° Northeast 175 201 7,500  Level Boston Center
10:06AM 41.3114 -72.0053 45° Northeast 174 200 7,500  Level Boston Center
10:07AM 41.3453 -71.9575 47° Northeast 172 198 7,500  Level Boston Center
10:09AM 41.3842 -71.9061 45° Northeast 176 203 7,500 -60 Level Boston Center
10:09AM 41.4144 -71.8656 45° Northeast 174 200 7,400 -420 Descending Boston Center
10:13AM 41.5553 -71.6672 79° East 191 220 5,600 -420 Descending Boston Center
10:14AM 41.5917 -71.6172 46° Northeast 175 201 5,500 -60 Descending Boston Center
10:15AM 41.6228 -71.5708 48° Northeast 166 191 5,500  Level Boston Center
10:16AM 41.6558 -71.5256 46° Northeast 167 192 5,500  Level Boston Center
10:17AM 41.6864 -71.4819 47° Northeast 162 186 5,500  Level Boston Center
10:18AM 41.7209 -71.3889 79° East  Level FlightAware Approximate
10:19AM 41.7323 -71.3132 79° East  Level FlightAware Approximate
10:19AM 41.7200 -71.4336 47° Northeast 164 189 5,500  Level Boston Center
10:20AM 41.7414 -71.3722 65° Northeast 168 193 5,500  Level Boston Center
10:21AM 41.7539 -71.3103 75° East 177 204 5,500  Level Boston Center
10:22AM 41.7731 -71.2481 68° East 172 198 5,500  Level Boston Center
10:23AM 41.7903 -71.1850 70° East 176 203 5,500 -120 Level Boston Center
10:24AM 41.8053 -71.1211 72° East 175 201 5,300 -360 Descending Boston Center
10:25AM 41.8217 -71.0608 70° East 175 201 4,800 -600 Descending Boston Center
10:26AM 41.8386 -70.9975 70° East 178 205 4,100 -120 Descending Boston Center
10:53AM 41.8900 -70.8372 264° West 122 140 2,900 -60 Descending Boston Center
10:54AM 41.9090 -70.7288 283° West  Level Estimated
10:54AM 41.8794 -70.8794 251° West 127 146 4,000  Level Boston Center
10:55AM 41.9090 -70.7288 135° Southeast  Level Estimated
10:55AM 41.8664 -70.9239 248° West 121 139 4,500  Level Boston Center
10:56AM 41.9090 -70.7288 283° West  Level Estimated
10:56AM 41.8517 -70.9764 249° West 140 161 4,500  Level Boston Center
10:57AM 41.9090 -70.7288 135° Southeast  Level Estimated
10:57AM 41.8400 -71.0242 252° West 145 167 4,500  Level Boston Center
10:58AM 41.8275 -71.0744 252° West 142 163 4,500 -60 Level Boston Center
10:59AM 41.8111 -71.1233 246° West 144 166 4,400  Descending Boston Center
11:00AM 41.7981 -71.1678 249° West 138 159 4,500  Climbing Boston Center
11:01AM 41.7814 -71.2281 250° West 141 162 4,500  Level Boston Center
11:02AM 41.7686 -71.2811 252° West 147 169 4,600  Climbing Boston Center
11:03AM 41.7556 -71.3342 252° West 152 175 4,500  Descending Boston Center
11:04AM 41.7375 -71.3908 247° West 154 177 4,600  Climbing Boston Center
11:05AM 41.7178 -71.4444 244° Southwest 154 177 4,600  Level Boston Center
11:06AM 41.6864 -71.4819 222° Southwest 162 186 4,600 -60 Level Boston Center
11:07AM 41.6497 -71.5233 220° Southwest 159 183 4,500 -120 Descending Boston Center
11:08AM 41.6189 -71.5581 220° Southwest 156 180 4,400  Descending Boston Center
11:09AM 41.5797 -71.6014 220° Southwest 158 182 4,500 60 Climbing Boston Center
11:10AM 41.5503 -71.6281 214° Southwest 159 183 4,600  Climbing Boston Center
11:11AM 41.5089 -71.6617 211° Southwest 159 183 4,600  Level Boston Center
11:12AM 41.4733 -71.6975 217° Southwest 155 178 4,600 -60 Level Boston Center
11:13AM 41.4383 -71.7306 215° Southwest 163 188 4,500  Descending Boston Center
11:14AM 41.4022 -71.7689 219° Southwest 156 180 4,600  Climbing Boston Center
11:15AM 41.3750 -71.8050 225° Southwest 158 182 4,600 -60 Level Boston Center
11:16AM 41.3403 -71.8467 222° Southwest 160 184 4,500 -60 Descending Boston Center
11:17AM 41.3094 -71.8811 220° Southwest 159 183 4,500 -60 Level Boston Center
11:18AM 41.2719 -71.9247 221° Southwest 163 188 4,400 -60 Descending Boston Center
11:19AM 41.2383 -71.9611 219° Southwest 158 182 4,400  Level Boston Center
11:20AM 41.2028 -71.9964 217° Southwest 158 182 4,500 -180 Climbing Boston Center
11:21AM 41.1639 -72.0367 218° Southwest 158 182 4,100 -360 Descending Boston Center
11:22AM 41.1250 -72.0767 218° Southwest 157 181 3,700 -360 Descending Boston Center
11:24AM 41.1681 -72.0332 37° Northeast  Level FlightAware Approximate
11:31AM 41.3478 -71.7219 45° Northeast  Level Estimated
11:32AM 41.3899 -71.7198 North  Level FlightAware Approximate
11:33AM 41.4143 -71.6739 40° Northeast  Level Estimated
11:34AM 41.4524 -71.6498 25° Northeast  Level FlightAware Approximate
11:35AM 41.4904 -71.6257 25° Northeast  Level FlightAware Approximate
11:36AM 41.5285 -71.6015 25° Northeast  Level FlightAware Approximate
11:37AM 41.5499 -71.5530 29° Northeast  Level Estimated